sensor_id;sensor_type;location;lat;lon;timestamp;pressure;altitude;pressure_sealevel;temperature;humidity
10852;BME280;5479;52.046;6.314;2023-02-13T00:01:18;103697.69;;;7.74;100.00
10852;BME280;5479;52.046;6.314;2023-02-13T00:03:48;103701.22;;;7.58;100.00
10852;BME280;5479;52.046;6.314;2023-02-13T00:06:18;103699.47;;;7.60;100.00
10852;BME280;5479;52.046;6.314;2023-02-13T00:08:46;103694.22;;;7.57;100.00
10852;BME280;5479;52.046;6.314;2023-02-13T00:11:14;103695.97;;;7.53;100.00
10852;BME280;5479;52.046;6.314;2023-02-13T00:13:42;103688.91;;;7.52;100.00
10852;BME280;5479;52.046;6.314;2023-02-13T00:16:12;103693.31;;;7.58;100.00
10852;BME280;5479;52.046;6.314;2023-02-13T00:18:41;103686.28;;;7.64;100.00
10852;BME280;5479;52.046;6.314;2023-02-13T00:21:12;103688.00;;;7.79;100.00
10852;BME280;5479;52.046;6.314;2023-02-13T00:23:39;103688.91;;;7.70;100.00
10852;BME280;5479;52.046;6.314;2023-02-13T00:26:10;103691.53;;;7.63;100.00
10852;BME280;5479;52.046;6.314;2023-02-13T00:28:40;103683.63;;;7.78;100.00
10852;BME280;5479;52.046;6.314;2023-02-13T00:31:10;103685.41;;;7.73;100.00
10852;BME280;5479;52.046;6.314;2023-02-13T00:33:40;103683.63;;;7.72;100.00
10852;BME280;5479;52.046;6.314;2023-02-13T00:36:14;103686.28;;;7.70;100.00
10852;BME280;5479;52.046;6.314;2023-02-13T00:38:43;103673.09;;;7.60;100.00
10852;BME280;5479;52.046;6.314;2023-02-13T00:41:12;103683.66;;;7.54;100.00
10852;BME280;5479;52.046;6.314;2023-02-13T00:43:42;103675.75;;;7.58;100.00
10852;BME280;5479;52.046;6.314;2023-02-13T00:46:10;103684.50;;;7.63;100.00
10852;BME280;5479;52.046;6.314;2023-02-13T00:48:39;103677.50;;;7.67;100.00
10852;BME280;5479;52.046;6.314;2023-02-13T00:51:07;103678.38;;;7.61;100.00
10852;BME280;5479;52.046;6.314;2023-02-13T00:53:40;103683.63;;;7.63;100.00
10852;BME280;5479;52.046;6.314;2023-02-13T00:56:09;103673.13;;;7.51;100.00
10852;BME280;5479;52.046;6.314;2023-02-13T00:58:43;103682.78;;;7.53;100.00
10852;BME280;5479;52.046;6.314;2023-02-13T01:01:11;103671.34;;;7.50;100.00
10852;BME280;5479;52.046;6.314;2023-02-13T01:03:39;103674.88;;;7.47;100.00
10852;BME280;5479;52.046;6.314;2023-02-13T01:06:07;103678.38;;;7.52;100.00
10852;BME280;5479;52.046;6.314;2023-02-13T01:08:39;103688.91;;;7.60;100.00
10852;BME280;5479;52.046;6.314;2023-02-13T01:11:08;103686.25;;;7.66;100.00
10852;BME280;5479;52.046;6.314;2023-02-13T01:13:36;103674.84;;;7.64;100.00
10852;BME280;5479;52.046;6.314;2023-02-13T01:16:04;103679.28;;;7.51;100.00
10852;BME280;5479;52.046;6.314;2023-02-13T01:18:32;103674.88;;;7.40;100.00
10852;BME280;5479;52.046;6.314;2023-02-13T01:21:02;103676.63;;;7.32;100.00
10852;BME280;5479;52.046;6.314;2023-02-13T01:23:31;103682.78;;;7.32;100.00
10852;BME280;5479;52.046;6.314;2023-02-13T01:26:02;103676.66;;;7.41;100.00
10852;BME280;5479;52.046;6.314;2023-02-13T01:28:31;103676.66;;;7.38;100.00
10852;BME280;5479;52.046;6.314;2023-02-13T01:30:59;103676.66;;;7.41;100.00
10852;BME280;5479;52.046;6.314;2023-02-13T01:33:28;103678.38;;;7.52;100.00
10852;BME280;5479;52.046;6.314;2023-02-13T01:35:57;103672.22;;;7.55;100.00
10852;BME280;5479;52.046;6.314;2023-02-13T01:38:25;103670.47;;;7.49;100.00
10852;BME280;5479;52.046;6.314;2023-02-13T01:40:53;103671.34;;;7.51;100.00
10852;BME280;5479;52.046;6.314;2023-02-13T01:43:41;103662.56;;;7.42;100.00
10852;BME280;5479;52.046;6.314;2023-02-13T01:46:11;103666.09;;;7.39;100.00
10852;BME280;5479;52.046;6.314;2023-02-13T01:48:40;103666.09;;;7.35;100.00
10852;BME280;5479;52.046;6.314;2023-02-13T01:51:12;103657.28;;;7.45;100.00
10852;BME280;5479;52.046;6.314;2023-02-13T01:53:45;103659.91;;;7.49;100.00
10852;BME280;5479;52.046;6.314;2023-02-13T01:56:17;103661.66;;;7.58;100.00
10852;BME280;5479;52.046;6.314;2023-02-13T01:58:50;103659.03;;;7.59;100.00
10852;BME280;5479;52.046;6.314;2023-02-13T02:01:19;103663.44;;;7.56;100.00
10852;BME280;5479;52.046;6.314;2023-02-13T02:03:52;103663.44;;;7.65;100.00
10852;BME280;5479;52.046;6.314;2023-02-13T02:06:24;103660.78;;;7.60;100.00
10852;BME280;5479;52.046;6.314;2023-02-13T02:08:54;103664.31;;;7.52;100.00
10852;BME280;5479;52.046;6.314;2023-02-13T02:11:34;103666.06;;;7.44;100.00
10852;BME280;5479;52.046;6.314;2023-02-13T02:14:07;103667.84;;;7.39;100.00
10852;BME280;5479;52.046;6.314;2023-02-13T02:16:36;103659.06;;;7.32;100.00
10852;BME280;5479;52.046;6.314;2023-02-13T02:19:09;103661.72;;;7.24;100.00
10852;BME280;5479;52.046;6.314;2023-02-13T02:25:06;103648.50;;;7.34;100.00
10852;BME280;5479;52.046;6.314;2023-02-13T02:28:06;103653.75;;;7.55;100.00
10852;BME280;5479;52.046;6.314;2023-02-13T02:34:09;103652.00;;;7.42;100.00
10852;BME280;5479;52.046;6.314;2023-02-13T02:36:52;103640.56;;;7.55;100.00
10852;BME280;5479;52.046;6.314;2023-02-13T02:39:29;103643.22;;;7.41;100.00
10852;BME280;5479;52.046;6.314;2023-02-13T02:42:05;103642.34;;;7.33;100.00
10852;BME280;5479;52.046;6.314;2023-02-13T02:44:41;103647.63;;;7.38;100.00
10852;BME280;5479;52.046;6.314;2023-02-13T02:47:19;103645.00;;;7.38;100.00
10852;BME280;5479;52.046;6.314;2023-02-13T02:50:23;103645.88;;;7.30;100.00
10852;BME280;5479;52.046;6.314;2023-02-13T02:53:03;103645.00;;;7.30;100.00
10852;BME280;5479;52.046;6.314;2023-02-13T02:55:37;103640.59;;;7.34;100.00
10852;BME280;5479;52.046;6.314;2023-02-13T02:58:12;103643.25;;;7.27;100.00
10852;BME280;5479;52.046;6.314;2023-02-13T03:01:05;103639.72;;;7.25;100.00
10852;BME280;5479;52.046;6.314;2023-02-13T03:03:54;103639.75;;;7.19;100.00
10852;BME280;5479;52.046;6.314;2023-02-13T03:06:45;103644.13;;;7.14;100.00
10852;BME280;5479;52.046;6.314;2023-02-13T03:09:19;103637.97;;;7.21;100.00
10852;BME280;5479;52.046;6.314;2023-02-13T03:12:07;103637.97;;;7.21;100.00
10852;BME280;5479;52.046;6.314;2023-02-13T03:15:00;103638.00;;;7.24;100.00
10852;BME280;5479;52.046;6.314;2023-02-13T03:17:29;103637.97;;;7.20;100.00
10852;BME280;5479;52.046;6.314;2023-02-13T03:20:26;103633.56;;;7.25;100.00
10852;BME280;5479;52.046;6.314;2023-02-13T03:23:25;103633.59;;;7.26;100.00
10852;BME280;5479;52.046;6.314;2023-02-13T03:29:25;103635.34;;;7.29;100.00
10852;BME280;5479;52.046;6.314;2023-02-13T03:32:20;103639.72;;;7.39;100.00
10852;BME280;5479;52.046;6.314;2023-02-13T03:35:01;103644.97;;;7.33;100.00
10852;BME280;5479;52.046;6.314;2023-02-13T03:37:50;103640.63;;;7.32;100.00
10852;BME280;5479;52.046;6.314;2023-02-13T03:40:27;103645.88;;;7.34;100.00
10852;BME280;5479;52.046;6.314;2023-02-13T03:43:03;103647.63;;;7.33;100.00
10852;BME280;5479;52.046;6.314;2023-02-13T03:45:36;103644.13;;;7.29;100.00
10852;BME280;5479;52.046;6.314;2023-02-13T03:48:25;103647.66;;;7.27;100.00
10852;BME280;5479;52.046;6.314;2023-02-13T03:51:16;103655.56;;;7.41;100.00
10852;BME280;5479;52.046;6.314;2023-02-13T03:53:49;103642.34;;;7.48;100.00
10852;BME280;5479;52.046;6.314;2023-02-13T03:56:21;103651.13;;;7.47;100.00
10852;BME280;5479;52.046;6.314;2023-02-13T03:59:09;103652.91;;;7.36;100.00
10852;BME280;5479;52.046;6.314;2023-02-13T04:01:50;103657.31;;;7.33;100.00
10852;BME280;5479;52.046;6.314;2023-02-13T04:04:25;103659.06;;;7.46;100.00
10852;BME280;5479;52.046;6.314;2023-02-13T04:06:58;103652.00;;;7.45;100.00
10852;BME280;5479;52.046;6.314;2023-02-13T04:09:28;103649.41;;;7.36;100.00
10852;BME280;5479;52.046;6.314;2023-02-13T04:12:05;103645.84;;;7.47;100.00
10852;BME280;5479;52.046;6.314;2023-02-13T04:14:39;103652.91;;;7.39;100.00
10852;BME280;5479;52.046;6.314;2023-02-13T04:17:15;103646.75;;;7.31;100.00
10852;BME280;5479;52.046;6.314;2023-02-13T04:19:45;103649.41;;;7.36;100.00
10852;BME280;5479;52.046;6.314;2023-02-13T04:22:14;103644.97;;;7.39;100.00
10852;BME280;5479;52.046;6.314;2023-02-13T04:24:43;103646.75;;;7.40;100.00
10852;BME280;5479;52.046;6.314;2023-02-13T04:27:17;103644.09;;;7.39;100.00
10852;BME280;5479;52.046;6.314;2023-02-13T04:29:45;103645.00;;;7.28;100.00
10852;BME280;5479;52.046;6.314;2023-02-13T04:32:13;103645.00;;;7.28;100.00
10852;BME280;5479;52.046;6.314;2023-02-13T04:34:43;103650.25;;;7.33;100.00
10852;BME280;5479;52.046;6.314;2023-02-13T04:37:10;103645.88;;;7.34;100.00
10852;BME280;5479;52.046;6.314;2023-02-13T04:39:38;103650.28;;;7.28;100.00
10852;BME280;5479;52.046;6.314;2023-02-13T04:42:07;103649.38;;;7.28;100.00
10852;BME280;5479;52.046;6.314;2023-02-13T04:44:36;103650.28;;;7.28;100.00
10852;BME280;5479;52.046;6.314;2023-02-13T04:47:04;103645.88;;;7.35;100.00
10852;BME280;5479;52.046;6.314;2023-02-13T04:49:32;103639.72;;;7.28;100.00
10852;BME280;5479;52.046;6.314;2023-02-13T04:52:00;103640.59;;;7.26;100.00
10852;BME280;5479;52.046;6.314;2023-02-13T04:54:28;103645.00;;;7.22;100.00
10852;BME280;5479;52.046;6.314;2023-02-13T04:56:56;103643.25;;;7.27;100.00
10852;BME280;5479;52.046;6.314;2023-02-13T04:59:24;103641.50;;;7.26;100.00
10852;BME280;5479;52.046;6.314;2023-02-13T05:01:53;103633.59;;;7.29;100.00
10852;BME280;5479;52.046;6.314;2023-02-13T05:04:23;103637.06;;;7.33;100.00
10852;BME280;5479;52.046;6.314;2023-02-13T05:06:51;103633.59;;;7.33;100.00
10852;BME280;5479;52.046;6.314;2023-02-13T05:09:19;103637.97;;;7.34;100.00
10852;BME280;5479;52.046;6.314;2023-02-13T05:11:50;103639.72;;;7.32;100.00
10852;BME280;5479;52.046;6.314;2023-02-13T05:14:19;103630.94;;;7.33;100.00
10852;BME280;5479;52.046;6.314;2023-02-13T05:16:49;103624.78;;;7.32;100.00
10852;BME280;5479;52.046;6.314;2023-02-13T05:19:18;103635.34;;;7.29;100.00
10852;BME280;5479;52.046;6.314;2023-02-13T05:21:48;103626.56;;;7.19;100.00
10852;BME280;5479;52.046;6.314;2023-02-13T05:24:33;103626.56;;;7.27;100.00
10852;BME280;5479;52.046;6.314;2023-02-13T05:27:03;103631.81;;;7.15;100.00
10852;BME280;5479;52.046;6.314;2023-02-13T05:29:31;103631.81;;;7.07;100.00
10852;BME280;5479;52.046;6.314;2023-02-13T05:31:59;103632.69;;;6.99;100.00
10852;BME280;5479;52.046;6.314;2023-02-13T05:34:29;103627.44;;;7.02;100.00
10852;BME280;5479;52.046;6.314;2023-02-13T05:36:58;103624.81;;;7.11;100.00
10852;BME280;5479;52.046;6.314;2023-02-13T05:39:26;103626.53;;;7.12;100.00
10852;BME280;5479;52.046;6.314;2023-02-13T05:41:54;103626.56;;;7.03;100.00
10852;BME280;5479;52.046;6.314;2023-02-13T05:44:22;103628.31;;;7.04;100.00
10852;BME280;5479;52.046;6.314;2023-02-13T05:46:51;103628.31;;;7.08;100.00
10852;BME280;5479;52.046;6.314;2023-02-13T05:49:20;103623.94;;;7.16;100.00
10852;BME280;5479;52.046;6.314;2023-02-13T05:51:51;103630.06;;;7.17;100.00
10852;BME280;5479;52.046;6.314;2023-02-13T05:54:19;103630.06;;;7.17;100.00
10852;BME280;5479;52.046;6.314;2023-02-13T05:56:48;103627.44;;;7.18;100.00
10852;BME280;5479;52.046;6.314;2023-02-13T05:59:15;103629.19;;;7.21;100.00
10852;BME280;5479;52.046;6.314;2023-02-13T06:01:43;103623.03;;;7.29;100.00
10852;BME280;5479;52.046;6.314;2023-02-13T06:04:09;103630.94;;;7.20;100.00
10852;BME280;5479;52.046;6.314;2023-02-13T06:06:39;103625.69;;;7.29;100.00
10852;BME280;5479;52.046;6.314;2023-02-13T06:09:10;103625.66;;;7.23;100.00
10852;BME280;5479;52.046;6.314;2023-02-13T06:11:38;103627.44;;;7.18;100.00
10852;BME280;5479;52.046;6.314;2023-02-13T06:14:07;103625.66;;;7.17;100.00
10852;BME280;5479;52.046;6.314;2023-02-13T06:16:35;103622.16;;;7.15;100.00
10852;BME280;5479;52.046;6.314;2023-02-13T06:19:03;103628.31;;;7.08;100.00
10852;BME280;5479;52.046;6.314;2023-02-13T06:21:31;103632.72;;;7.14;100.00
10852;BME280;5479;52.046;6.314;2023-02-13T06:24:06;103630.94;;;7.17;100.00
10852;BME280;5479;52.046;6.314;2023-02-13T06:26:36;103630.94;;;7.20;100.00
10852;BME280;5479;52.046;6.314;2023-02-13T06:29:04;103632.72;;;7.18;100.00
10852;BME280;5479;52.046;6.314;2023-02-13T06:31:33;103646.78;;;7.11;100.00
10852;BME280;5479;52.046;6.314;2023-02-13T06:34:01;103645.91;;;7.24;100.00
10852;BME280;5479;52.046;6.314;2023-02-13T06:36:30;103649.38;;;7.20;100.00
10852;BME280;5479;52.046;6.314;2023-02-13T06:38:58;103650.28;;;7.18;100.00
10852;BME280;5479;52.046;6.314;2023-02-13T06:41:26;103643.25;;;7.21;100.00
10852;BME280;5479;52.046;6.314;2023-02-13T06:43:57;103643.25;;;7.24;100.00
10852;BME280;5479;52.046;6.314;2023-02-13T06:46:25;103653.78;;;7.34;100.00
10852;BME280;5479;52.046;6.314;2023-02-13T06:48:53;103650.28;;;7.41;100.00
10852;BME280;5479;52.046;6.314;2023-02-13T06:51:21;103646.75;;;7.39;100.00
10852;BME280;5479;52.046;6.314;2023-02-13T06:53:49;103647.63;;;7.39;100.00
10852;BME280;5479;52.046;6.314;2023-02-13T06:56:17;103647.66;;;7.30;100.00
10852;BME280;5479;52.046;6.314;2023-02-13T06:58:46;103650.28;;;7.35;100.00
10852;BME280;5479;52.046;6.314;2023-02-13T07:01:16;103657.28;;;7.31;100.00
10852;BME280;5479;52.046;6.314;2023-02-13T07:03:44;103659.94;;;7.23;100.00
10852;BME280;5479;52.046;6.314;2023-02-13T07:06:16;103663.47;;;7.19;100.00
10852;BME280;5479;52.046;6.314;2023-02-13T07:08:44;103656.44;;;7.21;100.00
10852;BME280;5479;52.046;6.314;2023-02-13T07:11:17;103656.44;;;7.24;100.00
10852;BME280;5479;52.046;6.314;2023-02-13T07:13:46;103663.44;;;7.28;100.00
10852;BME280;5479;52.046;6.314;2023-02-13T07:16:15;103664.31;;;7.34;100.00
10852;BME280;5479;52.046;6.314;2023-02-13T07:18:44;103671.38;;;7.32;100.00
10852;BME280;5479;52.046;6.314;2023-02-13T07:21:12;103677.50;;;7.30;100.00
10852;BME280;5479;52.046;6.314;2023-02-13T07:23:40;103681.03;;;7.31;100.00
10852;BME280;5479;52.046;6.314;2023-02-13T07:26:11;103668.72;;;7.33;100.00
10852;BME280;5479;52.046;6.314;2023-02-13T07:28:37;103667.88;;;7.36;100.00
10852;BME280;5479;52.046;6.314;2023-02-13T07:31:06;103683.66;;;7.28;100.00
10852;BME280;5479;52.046;6.314;2023-02-13T07:33:37;103674.88;;;7.37;100.00
10852;BME280;5479;52.046;6.314;2023-02-13T07:36:06;103678.38;;;7.42;100.00
10852;BME280;5479;52.046;6.314;2023-02-13T07:38:34;103684.53;;;7.44;100.00
10852;BME280;5479;52.046;6.314;2023-02-13T07:41:03;103690.69;;;7.56;100.00
10852;BME280;5479;52.046;6.314;2023-02-13T07:43:32;103687.16;;;7.50;100.00
10852;BME280;5479;52.046;6.314;2023-02-13T07:46:01;103685.41;;;7.55;100.00
10852;BME280;5479;52.046;6.314;2023-02-13T07:48:30;103690.69;;;7.62;100.00
10852;BME280;5479;52.046;6.314;2023-02-13T07:51:03;103694.22;;;7.57;100.00
10852;BME280;5479;52.046;6.314;2023-02-13T07:53:31;103695.09;;;7.51;100.00
10852;BME280;5479;52.046;6.314;2023-02-13T07:56:04;103688.91;;;7.52;100.00
10852;BME280;5479;52.046;6.314;2023-02-13T07:58:33;103695.09;;;7.54;100.00
10852;BME280;5479;52.046;6.314;2023-02-13T08:01:05;103690.66;;;7.74;100.00
10852;BME280;5479;52.046;6.314;2023-02-13T08:03:33;103690.63;;;7.88;100.00
10852;BME280;5479;52.046;6.314;2023-02-13T08:06:03;103694.13;;;7.87;100.00
10852;BME280;5479;52.046;6.314;2023-02-13T08:08:32;103699.41;;;7.90;100.00
10852;BME280;5479;52.046;6.314;2023-02-13T08:11:03;103694.13;;;7.93;100.00
10852;BME280;5479;52.046;6.314;2023-02-13T08:13:51;103692.38;;;7.92;100.00
10852;BME280;5479;52.046;6.314;2023-02-13T08:16:19;103695.91;;;7.88;100.00
10852;BME280;5479;52.046;6.314;2023-02-13T08:18:47;103701.16;;;7.96;100.00
10852;BME280;5479;52.046;6.314;2023-02-13T08:21:17;103700.28;;;7.95;100.00
10852;BME280;5479;52.046;6.314;2023-02-13T08:23:45;103692.34;;;8.04;100.00
10852;BME280;5479;52.046;6.314;2023-02-13T08:26:14;103702.91;;;8.07;100.00
10852;BME280;5479;52.046;6.314;2023-02-13T08:28:42;103695.84;;;8.15;100.00
10852;BME280;5479;52.046;6.314;2023-02-13T08:31:11;103695.84;;;8.15;100.00
10852;BME280;5479;52.046;6.314;2023-02-13T08:33:39;103695.78;;;8.33;100.00
10852;BME280;5479;52.046;6.314;2023-02-13T08:36:09;103701.97;;;8.29;100.00
10852;BME280;5479;52.046;6.314;2023-02-13T08:38:38;103700.19;;;8.33;100.00
10852;BME280;5479;52.046;6.314;2023-02-13T08:41:07;103694.84;;;8.46;100.00
10852;BME280;5479;52.046;6.314;2023-02-13T08:43:36;103701.06;;;8.42;100.00
10852;BME280;5479;52.046;6.314;2023-02-13T08:46:04;103701.03;;;8.44;100.00
10852;BME280;5479;52.046;6.314;2023-02-13T08:48:33;103704.56;;;8.41;100.00
10852;BME280;5479;52.046;6.314;2023-02-13T08:51:04;103704.44;;;8.69;100.00
10852;BME280;5479;52.046;6.314;2023-02-13T08:53:33;103702.75;;;8.56;100.00
10852;BME280;5479;52.046;6.314;2023-02-13T08:56:03;103706.25;;;8.55;100.00
10852;BME280;5479;52.046;6.314;2023-02-13T08:58:31;103709.75;;;8.57;100.00
10852;BME280;5479;52.046;6.314;2023-02-13T09:00:59;103703.56;;;8.68;100.00
10852;BME280;5479;52.046;6.314;2023-02-13T09:03:27;103701.81;;;8.66;100.00
10852;BME280;5479;52.046;6.314;2023-02-13T09:05:58;103704.44;;;8.69;100.00
10852;BME280;5479;52.046;6.314;2023-02-13T09:08:26;103700.88;;;8.70;100.00
10852;BME280;5479;52.046;6.314;2023-02-13T09:10:56;103699.06;;;8.81;100.00
10852;BME280;5479;52.046;6.314;2023-02-13T09:13:26;103697.22;;;8.95;100.00
10852;BME280;5479;52.046;6.314;2023-02-13T09:15:57;103700.75;;;8.94;100.00
10852;BME280;5479;52.046;6.314;2023-02-13T09:18:25;103696.28;;;9.03;100.00
10852;BME280;5479;52.046;6.314;2023-02-13T09:20:57;103699.03;;;8.87;100.00
10852;BME280;5479;52.046;6.314;2023-02-13T09:23:29;103688.44;;;8.88;100.00
10852;BME280;5479;52.046;6.314;2023-02-13T09:25:58;103688.50;;;8.85;100.00
10852;BME280;5479;52.046;6.314;2023-02-13T09:28:28;103690.06;;;9.12;100.00
10852;BME280;5479;52.046;6.314;2023-02-13T09:30:57;103694.25;;;9.37;100.00
10852;BME280;5479;52.046;6.314;2023-02-13T09:33:25;103686.31;;;9.37;100.00
10852;BME280;5479;52.046;6.314;2023-02-13T09:35:53;103689.72;;;9.51;100.00
10852;BME280;5479;52.046;6.314;2023-02-13T09:38:21;103685.22;;;9.61;100.00
10852;BME280;5479;52.046;6.314;2023-02-13T09:40:51;103683.41;;;9.67;100.00
10852;BME280;5479;52.046;6.314;2023-02-13T09:43:28;103692.00;;;9.88;100.00
10852;BME280;5479;52.046;6.314;2023-02-13T09:45:59;103703.59;;;9.75;100.00
10852;BME280;5479;52.046;6.314;2023-02-13T09:48:30;103691.41;;;9.60;100.00
10852;BME280;5479;52.046;6.314;2023-02-13T09:50:59;103697.31;;;9.86;100.00
10852;BME280;5479;52.046;6.314;2023-02-13T09:53:28;103699.53;;;10.27;100.00
10852;BME280;5479;52.046;6.314;2023-02-13T09:56:04;103697.28;;;10.62;100.00
10852;BME280;5479;52.046;6.314;2023-02-13T09:58:42;103694.44;;;10.76;100.00
10852;BME280;5479;52.046;6.314;2023-02-13T10:01:19;103699.50;;;10.94;100.00
10852;BME280;5479;52.046;6.314;2023-02-13T10:03:58;103700.34;;;10.95;100.00
10852;BME280;5479;52.046;6.314;2023-02-13T10:06:35;103700.41;;;10.91;100.00
10852;BME280;5479;52.046;6.314;2023-02-13T10:09:26;103700.72;;;10.70;100.00
10852;BME280;5479;52.046;6.314;2023-02-13T10:12:15;103691.06;;;10.65;100.00
10852;BME280;5479;52.046;6.314;2023-02-13T10:14:53;103695.25;;;10.82;100.00
10852;BME280;5479;52.046;6.314;2023-02-13T10:17:33;103696.31;;;10.69;100.00
10852;BME280;5479;52.046;6.314;2023-02-13T10:20:06;103695.28;;;10.79;100.00
10852;BME280;5479;52.046;6.314;2023-02-13T10:22:37;103688.03;;;10.94;100.00
10852;BME280;5479;52.046;6.314;2023-02-13T10:25:12;103686.19;;;10.33;100.00
10852;BME280;5479;52.046;6.314;2023-02-13T10:27:45;103694.28;;;10.24;100.00
10852;BME280;5479;52.046;6.314;2023-02-13T10:30:20;103689.53;;;10.49;100.00
10852;BME280;5479;52.046;6.314;2023-02-13T10:32:55;103691.56;;;10.93;100.00
10852;BME280;5479;52.046;6.314;2023-02-13T10:35:37;103692.91;;;10.61;100.00
10852;BME280;5479;52.046;6.314;2023-02-13T10:38:13;103688.66;;;10.48;100.00
10852;BME280;5479;52.046;6.314;2023-02-13T10:40:50;103686.66;;;10.65;100.00
10852;BME280;5479;52.046;6.314;2023-02-13T10:43:26;103698.13;;;10.66;100.00
10852;BME280;5479;52.046;6.314;2023-02-13T10:46:04;103690.41;;;10.49;100.00
10852;BME280;5479;52.046;6.314;2023-02-13T10:48:47;103685.34;;;10.31;100.00
10852;BME280;5479;52.046;6.314;2023-02-13T10:51:27;103685.00;;;10.58;100.00
10852;BME280;5479;52.046;6.314;2023-02-13T10:54:15;103686.94;;;10.44;100.00
10852;BME280;5479;52.046;6.314;2023-02-13T10:56:54;103680.19;;;10.84;100.00
10852;BME280;5479;52.046;6.314;2023-02-13T10:59:33;103675.56;;;10.99;100.00
10852;BME280;5479;52.046;6.314;2023-02-13T11:02:18;103670.59;;;10.77;100.00
10852;BME280;5479;52.046;6.314;2023-02-13T11:04:49;103673.88;;;10.91;100.00
10852;BME280;5479;52.046;6.314;2023-02-13T11:07:18;103663.28;;;10.91;100.00
10852;BME280;5479;52.046;6.314;2023-02-13T11:09:49;103662.09;;;11.12;100.00
10852;BME280;5479;52.046;6.314;2023-02-13T11:12:26;103662.09;;;11.12;100.00
10852;BME280;5479;52.046;6.314;2023-02-13T11:14:56;103668.91;;;10.70;100.00
10852;BME280;5479;52.046;6.314;2023-02-13T11:17:27;103656.94;;;10.42;100.00
10852;BME280;5479;52.046;6.314;2023-02-13T11:19:58;103655.09;;;11.07;100.00
10852;BME280;5479;52.046;6.314;2023-02-13T11:22:32;103646.09;;;11.17;100.00
10852;BME280;5479;52.046;6.314;2023-02-13T11:25:03;103653.59;;;10.90;100.00
10852;BME280;5479;52.046;6.314;2023-02-13T11:27:35;103646.94;;;10.62;100.00
10852;BME280;5479;52.046;6.314;2023-02-13T11:30:06;103644.91;;;10.79;100.00
10852;BME280;5479;52.046;6.314;2023-02-13T11:32:58;103644.50;;;11.05;100.00
10852;BME280;5479;52.046;6.314;2023-02-13T11:35:29;103634.56;;;11.68;100.00
10852;BME280;5479;52.046;6.314;2023-02-13T11:38:11;103633.19;;;11.93;100.00
10852;BME280;5479;52.046;6.314;2023-02-13T11:40:40;103632.13;;;12.42;100.00
10852;BME280;5479;52.046;6.314;2023-02-13T11:43:17;103637.81;;;12.27;100.00
10852;BME280;5479;52.046;6.314;2023-02-13T11:45:45;103639.38;;;11.94;100.00
10852;BME280;5479;52.046;6.314;2023-02-13T11:48:21;103636.47;;;11.59;100.00
10852;BME280;5479;52.046;6.314;2023-02-13T11:50:53;103633.72;;;11.17;100.00
10852;BME280;5479;52.046;6.314;2023-02-13T11:53:23;103634.06;;;11.45;100.00
10852;BME280;5479;52.046;6.314;2023-02-13T11:56:08;103632.16;;;11.53;100.00
10852;BME280;5479;52.046;6.314;2023-02-13T11:58:36;103627.97;;;11.41;100.00
10852;BME280;5479;52.046;6.314;2023-02-13T12:04:02;103624.13;;;11.09;100.00
10852;BME280;5479;52.046;6.314;2023-02-13T12:06:31;103610.72;;;11.65;100.00
10852;BME280;5479;52.046;6.314;2023-02-13T12:09:10;103607.69;;;12.26;100.00
10852;BME280;5479;52.046;6.314;2023-02-13T12:11:41;103610.41;;;12.23;100.00
10852;BME280;5479;52.046;6.314;2023-02-13T12:14:13;103613.69;;;11.94;100.00
10852;BME280;5479;52.046;6.314;2023-02-13T12:16:45;103609.44;;;11.86;100.00
10852;BME280;5479;52.046;6.314;2023-02-13T12:19:20;103605.13;;;11.80;100.00
10852;BME280;5479;52.046;6.314;2023-02-13T12:22:03;103601.63;;;12.59;100.00
10852;BME280;5479;52.046;6.314;2023-02-13T12:24:48;103602.75;;;12.86;100.00
10852;BME280;5479;52.046;6.314;2023-02-13T12:27:24;103600.19;;;13.18;100.00
10852;BME280;5479;52.046;6.314;2023-02-13T12:30:08;103608.28;;;12.77;100.00
10852;BME280;5479;52.046;6.314;2023-02-13T12:32:48;103602.00;;;12.43;100.00
10852;BME280;5479;52.046;6.314;2023-02-13T12:35:29;103604.56;;;12.07;100.00
10852;BME280;5479;52.046;6.314;2023-02-13T12:38:03;103599.31;;;12.44;100.00
10852;BME280;5479;52.046;6.314;2023-02-13T12:40:58;103599.34;;;12.03;100.00
10852;BME280;5479;52.046;6.314;2023-02-13T12:46:36;103585.38;;;11.93;100.00
10852;BME280;5479;52.046;6.314;2023-02-13T12:49:20;103574.13;;;11.82;100.00
10852;BME280;5479;52.046;6.314;2023-02-13T12:52:07;103577.72;;;11.78;100.00
10852;BME280;5479;52.046;6.314;2023-02-13T12:54:50;103568.00;;;11.77;100.00
10852;BME280;5479;52.046;6.314;2023-02-13T12:57:35;103571.38;;;11.85;100.00
10852;BME280;5479;52.046;6.314;2023-02-13T13:00:20;103565.44;;;11.74;100.00
10852;BME280;5479;52.046;6.314;2023-02-13T13:03:17;103562.88;;;11.67;100.00
10852;BME280;5479;52.046;6.314;2023-02-13T13:06:01;103558.16;;;11.38;100.00
10852;BME280;5479;52.046;6.314;2023-02-13T13:08:44;103553.63;;;11.44;100.00
10852;BME280;5479;52.046;6.314;2023-02-13T13:11:32;103552.63;;;11.48;100.00
10852;BME280;5479;52.046;6.314;2023-02-13T13:14:10;103553.88;;;11.29;100.00
10852;BME280;5479;52.046;6.314;2023-02-13T13:16:49;103546.16;;;11.17;100.00
10852;BME280;5479;52.046;6.314;2023-02-13T13:19:27;103552.75;;;11.42;100.00
10852;BME280;5479;52.046;6.314;2023-02-13T13:22:04;103551.69;;;11.52;100.00
10852;BME280;5479;52.046;6.314;2023-02-13T13:24:44;103550.19;;;11.38;100.00
10852;BME280;5479;52.046;6.314;2023-02-13T13:27:18;103546.13;;;11.19;100.00
10852;BME280;5479;52.046;6.314;2023-02-13T13:29:51;103548.31;;;11.44;100.00
10852;BME280;5479;52.046;6.314;2023-02-13T13:32:21;103538.75;;;11.34;100.00
10852;BME280;5479;52.046;6.314;2023-02-13T13:34:50;103551.78;;;11.46;100.00
10852;BME280;5479;52.046;6.314;2023-02-13T13:37:27;103548.22;;;11.49;100.00
10852;BME280;5479;52.046;6.314;2023-02-13T13:40:02;103544.09;;;11.33;100.00
10852;BME280;5479;52.046;6.314;2023-02-13T13:42:40;103540.63;;;11.31;100.00
10852;BME280;5479;52.046;6.314;2023-02-13T13:45:29;103536.25;;;11.27;100.00